createdAt,value
2022-10-08T00:01:31.246Z,67.10
2022-10-08T00:03:59.503Z,67.10
2022-10-08T00:06:29.956Z,67.20
2022-10-08T00:09:00.191Z,67.30
2022-10-08T00:11:30.433Z,67.40
2022-10-08T00:14:02.036Z,67.50
2022-10-08T00:16:32.081Z,67.60
2022-10-08T00:19:02.480Z,67.80
2022-10-08T00:21:32.365Z,68.10
2022-10-08T00:24:01.466Z,68.20
2022-10-08T00:26:31.738Z,68.10
2022-10-08T00:29:03.892Z,68.30
2022-10-08T00:31:34.276Z,68.30
2022-10-08T00:34:05.806Z,68.40
2022-10-08T00:36:37.204Z,68.60
2022-10-08T00:39:07.808Z,68.90
2022-10-08T00:41:38.802Z,68.80
2022-10-08T00:44:40.633Z,68.80
2022-10-08T00:47:19.342Z,68.80
2022-10-08T00:49:49.197Z,68.50
2022-10-08T00:52:18.309Z,68.40
2022-10-08T00:54:48.893Z,68.40
2022-10-08T00:57:17.335Z,68.50
2022-10-08T00:59:45.378Z,68.60
2022-10-08T01:02:14.970Z,68.60
2022-10-08T01:04:44.655Z,68.40
2022-10-08T01:07:20.036Z,68.40
2022-10-08T01:09:56.839Z,68.50
2022-10-08T01:12:33.735Z,68.40
2022-10-08T01:15:06.827Z,68.30
2022-10-08T01:17:43.999Z,68.40
2022-10-08T01:20:30.566Z,68.50
2022-10-08T01:23:23.024Z,68.60
2022-10-08T01:25:57.207Z,68.60
2022-10-08T01:28:34.130Z,68.60
2022-10-08T01:31:07.270Z,68.70
2022-10-08T01:33:43.977Z,68.60
2022-10-08T01:36:15.850Z,68.50
2022-10-08T01:38:47.401Z,68.40
2022-10-08T01:41:17.775Z,68.40
2022-10-08T01:43:52.232Z,68.40
2022-10-08T01:46:24.400Z,68.40
2022-10-08T01:48:57.610Z,68.40
2022-10-08T01:51:33.068Z,68.40
2022-10-08T01:54:04.795Z,68.30
2022-10-08T01:56:35.526Z,68.50
2022-10-08T01:59:11.590Z,68.80
2022-10-08T02:01:45.089Z,69.10
2022-10-08T02:04:30.729Z,68.80
2022-10-08T02:07:00.804Z,68.60
2022-10-08T02:09:30.100Z,68.60
2022-10-08T02:11:58.432Z,68.60
2022-10-08T02:14:30.671Z,68.60
2022-10-08T02:17:07.014Z,68.60
2022-10-08T02:19:45.459Z,68.70
2022-10-08T02:22:17.413Z,68.70
2022-10-08T02:24:48.035Z,68.50
2022-10-08T02:27:18.302Z,68.40
2022-10-08T02:29:59.251Z,68.10
2022-10-08T02:32:35.007Z,68.00
2022-10-08T02:35:09.331Z,68.30
2022-10-08T02:37:42.914Z,68.10
2022-10-08T02:40:14.262Z,68.00
2022-10-08T02:42:47.682Z,68.00
2022-10-08T02:45:22.077Z,67.80
2022-10-08T02:47:54.809Z,67.80
2022-10-08T02:50:27.402Z,67.60
2022-10-08T02:52:56.126Z,67.80
2022-10-08T02:55:31.320Z,67.90
2022-10-08T02:58:04.223Z,68.10
2022-10-08T03:00:38.694Z,68.20
2022-10-08T03:03:11.664Z,68.00
2022-10-08T03:05:42.182Z,67.90
2022-10-08T03:08:14.298Z,68.00
2022-10-08T03:10:44.657Z,68.30
2022-10-08T03:13:13.769Z,68.30
2022-10-08T03:15:44.681Z,68.30
2022-10-08T03:18:14.145Z,68.30
2022-10-08T03:20:45.990Z,68.40
2022-10-08T03:23:17.908Z,68.50
2022-10-08T03:25:46.038Z,68.50
2022-10-08T03:28:14.203Z,68.70
2022-10-08T03:30:43.707Z,69.00
2022-10-08T03:33:11.750Z,69.90
2022-10-08T03:35:45.852Z,70.10
2022-10-08T03:38:15.564Z,70.40
2022-10-08T03:40:43.633Z,70.40
2022-10-08T03:43:11.908Z,70.40
2022-10-08T03:45:39.914Z,70.20
2022-10-08T03:48:09.319Z,69.90
2022-10-08T03:50:37.370Z,69.70
2022-10-08T03:53:05.381Z,69.50
2022-10-08T03:55:36.764Z,69.60
2022-10-08T03:58:04.834Z,69.70
2022-10-08T04:00:32.867Z,69.70
2022-10-08T04:03:00.998Z,70.00
2022-10-08T04:05:30.453Z,70.20
2022-10-08T04:07:58.551Z,70.30
2022-10-08T04:10:26.685Z,70.20
2022-10-08T04:12:54.775Z,70.30
2022-10-08T04:15:22.840Z,70.30
2022-10-08T04:17:50.868Z,70.30
2022-10-08T04:20:18.947Z,70.10
2022-10-08T04:22:48.993Z,70.40
2022-10-08T04:25:18.529Z,70.50
2022-10-08T04:27:49.203Z,70.50
2022-10-08T04:30:17.660Z,70.50
2022-10-08T04:32:45.982Z,70.60
2022-10-08T04:35:14.305Z,70.50
2022-10-08T04:37:42.378Z,70.50
2022-10-08T04:40:12.334Z,70.50
2022-10-08T04:42:40.402Z,70.60
2022-10-08T04:45:09.119Z,70.50
2022-10-08T04:47:37.184Z,70.40
2022-10-08T04:50:05.850Z,70.40
2022-10-08T04:52:33.856Z,70.20
2022-10-08T04:55:01.914Z,70.90
2022-10-08T04:57:32.364Z,70.10
2022-10-08T05:00:17.648Z,70.20
2022-10-08T05:02:47.373Z,70.20
2022-10-08T05:05:16.381Z,70.30
2022-10-08T05:07:44.646Z,70.30
2022-10-08T05:10:12.723Z,70.20
2022-10-08T05:12:42.182Z,70.10
2022-10-08T05:15:11.527Z,69.80
2022-10-08T05:17:39.564Z,69.80
2022-10-08T05:20:08.262Z,69.70
2022-10-08T05:22:36.276Z,69.70
2022-10-08T05:25:04.452Z,69.80
2022-10-08T05:27:32.489Z,69.80
2022-10-08T05:30:02.397Z,69.80
2022-10-08T05:32:30.453Z,69.80
2022-10-08T05:34:58.499Z,69.90
2022-10-08T05:37:26.691Z,69.90
2022-10-08T05:39:54.737Z,69.70
2022-10-08T05:42:22.778Z,69.70
2022-10-08T05:44:50.811Z,69.70
2022-10-08T05:47:20.225Z,69.50
2022-10-08T05:49:48.265Z,69.30
2022-10-08T05:52:16.323Z,69.20
2022-10-08T05:54:44.455Z,69.10
2022-10-08T05:57:12.483Z,68.90
2022-10-08T05:59:40.510Z,68.60
2022-10-08T06:02:08.601Z,68.50
2022-10-08T06:04:38.075Z,68.50
2022-10-08T06:07:06.143Z,68.50
2022-10-08T06:09:34.178Z,68.70
2022-10-08T06:12:02.245Z,69.10
2022-10-08T06:14:30.368Z,69.30
2022-10-08T06:16:58.425Z,69.30
2022-10-08T06:19:26.475Z,69.30
2022-10-08T06:21:55.868Z,69.20
2022-10-08T06:24:23.897Z,69.20
2022-10-08T06:26:51.941Z,69.50
2022-10-08T06:29:22.358Z,69.80
2022-10-08T06:31:50.474Z,70.20
2022-10-08T06:34:18.575Z,70.60
2022-10-08T06:36:46.764Z,70.90
2022-10-08T06:39:17.927Z,71.80
2022-10-08T06:41:46.041Z,71.40
2022-10-08T06:44:15.823Z,71.60
2022-10-08T06:46:44.354Z,71.90
2022-10-08T06:49:13.154Z,71.90
2022-10-08T06:51:41.362Z,72.00
2022-10-08T06:54:09.447Z,72.10
2022-10-08T06:56:40.113Z,72.10
2022-10-08T06:59:08.609Z,72.40
2022-10-08T07:01:37.064Z,72.40
2022-10-08T07:04:06.895Z,72.40
2022-10-08T07:06:35.455Z,72.50
2022-10-08T07:09:04.736Z,72.30
2022-10-08T07:11:33.620Z,72.40
2022-10-08T07:14:03.255Z,72.50
2022-10-08T07:16:31.551Z,72.50
2022-10-08T07:18:59.930Z,72.40
2022-10-08T07:21:29.250Z,72.40
2022-10-08T07:23:59.474Z,72.50
2022-10-08T07:26:29.228Z,72.40
2022-10-08T07:28:59.313Z,72.40
2022-10-08T07:31:31.363Z,72.40
2022-10-08T07:34:00.591Z,72.40
2022-10-08T07:36:29.764Z,72.30
2022-10-08T07:38:59.786Z,72.20
2022-10-08T07:41:29.076Z,72.10
2022-10-08T07:43:59.692Z,72.00
2022-10-08T07:46:30.077Z,71.90
2022-10-08T07:48:59.303Z,72.00
2022-10-08T07:51:28.485Z,71.90
2022-10-08T07:54:00.236Z,72.00
2022-10-08T07:56:30.289Z,71.90
2022-10-08T07:59:00.107Z,72.10
2022-10-08T08:01:31.500Z,72.30
2022-10-08T08:04:02.159Z,72.30
2022-10-08T08:06:31.786Z,72.30
2022-10-08T08:09:01.459Z,72.30
2022-10-08T08:11:30.080Z,72.40
2022-10-08T08:13:58.331Z,72.20
2022-10-08T08:16:29.489Z,72.30
2022-10-08T08:18:59.907Z,72.30
2022-10-08T08:21:30.018Z,72.40
2022-10-08T08:23:59.729Z,72.40
2022-10-08T08:26:29.831Z,72.40
2022-10-08T08:29:00.055Z,72.30
2022-10-08T08:31:30.872Z,72.30
2022-10-08T08:34:00.887Z,72.50
2022-10-08T08:36:31.617Z,72.40
2022-10-08T08:38:59.895Z,72.30
2022-10-08T08:41:47.196Z,72.20
2022-10-08T08:44:20.914Z,72.10
2022-10-08T08:46:57.204Z,72.00
2022-10-08T08:49:31.262Z,71.90
2022-10-08T08:52:02.554Z,71.70
2022-10-08T08:54:31.116Z,71.60
2022-10-08T08:57:07.917Z,71.40
2022-10-08T08:59:40.878Z,71.40
2022-10-08T09:02:19.199Z,71.20
2022-10-08T09:04:51.523Z,70.90
2022-10-08T09:07:25.603Z,70.10
2022-10-08T09:09:55.718Z,70.00
2022-10-08T09:12:28.487Z,69.80
2022-10-08T09:15:00.000Z,69.50
2022-10-08T09:17:33.269Z,69.50
2022-10-08T09:20:01.648Z,69.50
2022-10-08T09:22:32.385Z,69.70
2022-10-08T09:25:04.851Z,69.50
2022-10-08T09:27:47.243Z,69.50
2022-10-08T09:30:34.229Z,69.40
2022-10-08T09:33:06.739Z,69.30
2022-10-08T09:35:41.380Z,69.30
2022-10-08T09:38:24.422Z,69.20
2022-10-08T09:41:02.457Z,69.00
2022-10-08T09:43:30.614Z,68.90
2022-10-08T09:45:59.115Z,68.90
2022-10-08T09:48:29.833Z,69.00
2022-10-08T09:51:04.935Z,68.80
2022-10-08T09:53:42.015Z,68.80
2022-10-08T09:56:11.112Z,68.70
2022-10-08T09:58:52.208Z,68.80
2022-10-08T10:01:21.038Z,68.30
2022-10-08T10:03:54.045Z,68.30
2022-10-08T10:06:33.539Z,68.40
2022-10-08T10:09:07.255Z,68.50
2022-10-08T10:11:39.243Z,68.50
2022-10-08T10:14:20.741Z,68.40
2022-10-08T10:16:54.210Z,68.40
2022-10-08T10:19:29.452Z,68.50
2022-10-08T10:22:02.287Z,68.30
2022-10-08T10:24:41.107Z,68.10
2022-10-08T10:27:23.145Z,67.80
2022-10-08T10:29:54.370Z,67.80
2022-10-08T15:01:27.976Z,54.60
2022-10-08T15:01:59.144Z,54.50
2022-10-08T15:05:03.433Z,54.30
2022-10-08T15:07:50.413Z,56.40
2022-10-08T15:10:18.804Z,55.00
2022-10-08T15:12:47.103Z,54.90
2022-10-08T15:15:15.419Z,54.90
2022-10-08T15:17:43.447Z,54.70
2022-10-08T15:20:11.607Z,54.70
2022-10-08T15:22:41.077Z,54.80
2022-10-08T15:25:10.187Z,54.70
2022-10-08T15:27:38.453Z,54.70
2022-10-08T15:30:07.267Z,54.90
2022-10-08T15:32:37.165Z,55.10
2022-10-08T15:35:05.580Z,55.10
2022-10-08T15:37:33.635Z,55.20
2022-10-08T15:40:06.213Z,55.20
2022-10-08T15:42:34.273Z,55.10
2022-10-08T15:45:02.321Z,55.20
2022-10-08T15:47:30.543Z,55.30
2022-10-08T15:49:58.840Z,55.50
2022-10-08T15:52:26.868Z,55.50
2022-10-08T15:54:54.951Z,55.50
2022-10-08T15:57:24.339Z,55.30
2022-10-08T15:59:52.547Z,54.70
2022-10-08T16:02:20.624Z,54.80
2022-10-08T16:04:54.638Z,54.70
2022-10-08T16:07:22.673Z,54.70
2022-10-08T16:09:50.924Z,54.80
2022-10-08T16:12:19.023Z,54.90
2022-10-08T16:14:48.731Z,55.00
2022-10-08T16:17:16.848Z,55.10
2022-10-08T16:19:44.885Z,55.20
2022-10-08T16:22:12.969Z,55.20
2022-10-08T16:24:41.032Z,55.20
2022-10-08T16:27:09.099Z,55.40
2022-10-08T16:29:37.136Z,55.50
2022-10-08T16:32:06.604Z,55.50
2022-10-08T16:34:34.666Z,55.60
2022-10-08T16:37:04.822Z,55.80
2022-10-08T16:39:32.909Z,55.80
2022-10-08T16:42:01.049Z,55.80
2022-10-08T16:44:29.287Z,55.80
2022-10-08T16:46:57.325Z,55.80
2022-10-08T16:49:28.773Z,55.90
2022-10-08T16:51:58.729Z,55.70
2022-10-08T16:54:27.492Z,55.90
2022-10-08T16:56:55.938Z,55.80
2022-10-08T16:59:26.195Z,55.90
2022-10-08T17:01:56.454Z,55.90
2022-10-08T17:04:28.619Z,55.90
2022-10-08T17:06:57.020Z,56.00
2022-10-08T17:09:25.083Z,56.00
2022-10-08T17:11:53.107Z,56.10
2022-10-08T17:14:21.209Z,56.10
2022-10-08T17:16:50.629Z,56.00
2022-10-08T17:19:19.207Z,56.10
2022-10-08T17:21:48.706Z,56.10
2022-10-08T17:24:16.931Z,56.10
2022-10-08T17:26:44.970Z,56.00
2022-10-08T17:29:13.869Z,56.10
2022-10-08T17:31:42.383Z,56.10
2022-10-08T17:34:11.525Z,56.20
2022-10-08T17:36:42.670Z,56.30
2022-10-08T17:39:15.452Z,56.40
2022-10-08T17:41:44.314Z,56.50
2022-10-08T17:44:12.660Z,56.60
2022-10-08T17:46:45.422Z,56.60
2022-10-08T17:49:14.680Z,56.90
2022-10-08T17:51:43.046Z,57.10
2022-10-08T17:54:14.650Z,57.20
2022-10-08T17:56:43.372Z,57.30
2022-10-08T17:59:14.862Z,57.50
2022-10-08T18:01:45.296Z,57.50
2022-10-08T18:04:15.783Z,57.60
2022-10-08T18:06:46.121Z,57.70
2022-10-08T18:09:18.253Z,57.80
2022-10-08T18:11:54.283Z,57.70
2022-10-08T18:14:23.188Z,57.80
2022-10-08T18:16:51.342Z,57.90
2022-10-08T18:19:19.857Z,57.90
2022-10-08T18:21:48.392Z,58.00
2022-10-08T18:24:18.574Z,58.10
2022-10-08T18:26:46.993Z,58.00
2022-10-08T18:29:16.110Z,58.10
2022-10-08T18:31:46.489Z,58.20
2022-10-08T18:34:16.366Z,58.40
2022-10-08T18:36:45.031Z,58.40
2022-10-08T18:39:15.037Z,58.40
2022-10-08T18:41:45.992Z,58.40
2022-10-08T18:44:15.611Z,58.70
2022-10-08T18:46:45.565Z,58.70
2022-10-08T18:49:15.175Z,58.70
2022-10-08T18:51:49.873Z,58.80
2022-10-08T18:54:18.076Z,59.00
2022-10-08T18:56:47.759Z,59.00
2022-10-08T18:59:17.355Z,59.10
2022-10-08T19:01:47.168Z,59.30
2022-10-08T19:04:17.452Z,59.40
2022-10-08T19:06:46.798Z,59.60
2022-10-08T19:09:15.572Z,59.70
2022-10-08T19:11:45.448Z,59.90
2022-10-08T19:14:16.929Z,60.10
2022-10-08T19:16:45.641Z,60.20
2022-10-08T19:19:15.640Z,60.30
2022-10-08T19:21:44.360Z,60.50
2022-10-08T19:24:14.967Z,60.70
2022-10-08T19:26:43.408Z,60.70
2022-10-08T19:29:17.417Z,60.80
2022-10-08T19:31:47.667Z,61.00
2022-10-08T19:34:17.579Z,61.00
2022-10-08T19:36:46.886Z,61.20
2022-10-08T19:39:16.500Z,61.20
2022-10-08T19:41:45.390Z,61.20
2022-10-08T19:44:14.407Z,61.20
2022-10-08T19:46:44.046Z,61.20
2022-10-08T19:49:12.518Z,61.20
2022-10-08T19:51:40.741Z,61.20
2022-10-08T19:54:09.191Z,61.40
2022-10-08T19:56:37.473Z,61.50
2022-10-08T19:59:06.116Z,61.40
2022-10-08T20:01:36.945Z,61.20
2022-10-08T20:04:07.512Z,61.30
2022-10-08T20:06:41.494Z,61.30
2022-10-08T20:09:11.970Z,61.40
2022-10-08T20:11:40.857Z,61.60
2022-10-08T20:14:09.146Z,61.60
2022-10-08T20:16:39.550Z,61.70
2022-10-08T20:19:14.501Z,61.70
2022-10-08T20:21:42.566Z,61.80
2022-10-08T20:24:11.207Z,61.70
2022-10-08T20:26:41.268Z,61.70
2022-10-08T20:29:11.623Z,61.80
2022-10-08T20:31:41.508Z,61.80
2022-10-08T20:34:14.317Z,61.90
2022-10-08T20:36:42.684Z,62.20
2022-10-08T20:39:12.839Z,62.30
2022-10-08T20:41:41.686Z,62.50
2022-10-08T20:44:09.841Z,62.60
2022-10-08T20:46:38.197Z,62.60
2022-10-08T20:49:07.176Z,62.50
2022-10-08T20:51:39.131Z,62.50
2022-10-08T20:54:07.727Z,62.50
2022-10-08T20:56:40.114Z,62.40
2022-10-08T20:59:09.667Z,62.50
2022-10-08T21:01:39.548Z,62.70
2022-10-08T21:04:08.887Z,63.40
2022-10-08T21:06:39.657Z,62.70
2022-10-08T21:09:08.528Z,62.70
2022-10-08T21:11:37.426Z,62.70
2022-10-08T21:14:06.994Z,62.80
2022-10-08T21:16:37.205Z,62.70
2022-10-08T21:19:08.203Z,62.70
2022-10-08T21:21:36.391Z,62.70
2022-10-08T21:24:06.037Z,62.90
2022-10-08T21:26:35.443Z,62.70
2022-10-08T21:29:07.410Z,62.70
2022-10-08T21:31:36.254Z,62.70
2022-10-08T21:34:04.914Z,62.70
2022-10-08T21:36:35.169Z,62.70
2022-10-08T21:39:06.991Z,62.80
2022-10-08T21:41:36.953Z,62.60
2022-10-08T21:44:07.249Z,62.70
2022-10-08T21:46:37.331Z,62.90
2022-10-08T21:49:07.301Z,63.10
2022-10-08T21:51:36.122Z,63.20
2022-10-08T21:54:07.574Z,63.00
2022-10-08T21:56:37.651Z,62.90
2022-10-08T21:59:07.760Z,62.90
2022-10-08T22:01:38.377Z,63.00
2022-10-08T22:04:08.754Z,62.90
2022-10-08T22:06:42.662Z,63.10
2022-10-08T22:09:16.986Z,63.20
2022-10-08T22:11:48.251Z,63.10
2022-10-08T22:14:17.226Z,62.90
2022-10-08T22:16:46.987Z,63.00
2022-10-08T22:19:20.261Z,63.10
2022-10-08T22:21:55.313Z,63.20
2022-10-08T22:24:26.502Z,63.20
2022-10-08T22:26:56.939Z,63.20
2022-10-08T22:29:25.377Z,63.50
2022-10-08T22:31:59.627Z,64.30
2022-10-08T22:34:29.638Z,71.80
2022-10-08T22:37:00.167Z,72.10
2022-10-08T22:39:35.274Z,69.50
2022-10-08T22:42:18.795Z,67.70
2022-10-08T22:44:48.318Z,66.10
2022-10-08T22:47:19.378Z,64.70
2022-10-08T22:49:51.280Z,63.20
2022-10-08T22:52:22.401Z,60.70
2022-10-08T22:54:55.512Z,59.20
2022-10-08T22:57:24.735Z,57.90
2022-10-08T22:59:55.519Z,57.40
2022-10-08T23:02:35.579Z,57.20
2022-10-08T23:05:04.644Z,57.40
2022-10-08T23:07:33.834Z,57.60
2022-10-08T23:10:09.914Z,57.80
2022-10-08T23:12:43.831Z,58.00
2022-10-08T23:15:15.984Z,58.40
2022-10-08T23:17:45.188Z,58.60
2022-10-08T23:20:16.447Z,58.90
2022-10-08T23:22:44.727Z,59.20
2022-10-08T23:25:14.189Z,59.40
2022-10-08T23:27:42.196Z,59.70
2022-10-08T23:30:31.298Z,60.10
2022-10-08T23:33:03.819Z,60.50
2022-10-08T23:35:34.556Z,60.90
2022-10-08T23:38:03.484Z,61.10
2022-10-08T23:40:34.341Z,61.10
2022-10-08T23:43:06.000Z,61.30
2022-10-08T23:45:34.379Z,61.40
2022-10-08T23:48:02.718Z,61.60
2022-10-08T23:50:30.775Z,61.60
2022-10-08T23:52:58.810Z,61.60
2022-10-08T23:55:26.843Z,61.80
2022-10-08T23:57:56.235Z,61.80
